Terminal Aerodrome Forecast
Issued by NWS Cleveland, OH

Home | Current Version | Previous Version | Text Only | Print | Product List | Glossary On
Versions: 1 2 3 4 5 6 7 8 9 10 11 12 13 14 15 16 17 18 19
053
FTUS41 KCLE 251138
TAFERI
TAF
KERI 251138Z 2512/2612 25010G20KT P6SM -RA OVC025
      TEMPO 2512/2513 24012KT 5SM -RA BKN015
     FM251400 24012G20KT P6SM SCT015 BKN040
     FM251700 25017G27KT P6SM BKN025
     FM260400 27015G22KT 5SM -SHSN BKN018=

USA.gov is the U.S. government's official web portal to all federal, state and local government web resources and services.